Main page
METAR-TAF:

METAR-TAF

Airports :

Örebro Airport

Örebro, Sweden

latitude: 59-14N, longitude: 015-03E, elevation: 57 m

Current weather observation

The report was made 31 minutes ago, at 11:50 UTC
Wind 4 kt from the North, varying between North/Northwest and Northeast
Temperature 21°C
Humidity 49%
Pressure 1010 hPa
Visibility 10 km or more

METAR: ESOE 231150Z AUTO 01004KT 330V040 9999 FEW048/// 21/10 Q1010

Time: 14:21 (12:21 UTC)

Forecast

The report was made 51 minutes ago, at 11:30 UTC
Forecast valid from 23 at 12 UTC to 23 at 20 UTC
Wind 4 kt from the West/Northwest
Visibility 10 km or more
no clouds below 1500 m and no cumulonimbus

TAF: ESOE 231130Z 2312/2320 29004KT CAVOK

Weather observations and forecasts of more than 4000 airports (METAR and TAF reports).

The available stations are represented by yellow and red dots on the map.

Hover mouse over dot to see the name of the station.

Then click to see weather observations and forecasts.

To change the map : click on the green buttons with a black cross to zoom in, on the green button with a dash to zoom out, or on the green arrows for adjacent maps.


METAR-TAF: